Tiempo atmosférico en la estación meteorológica de Alcalá La Real, Jaén (915 m.)

Fecha
DESCASC
Temp. máxima en grados centígrados (hora)
DESCASC
Temp. mínima en grados centígrados (hora)
DESCASC
Temp. media en grados centígrados
DESCASC
Racha de viento máxima en m/sg (hora)
DESCASC
Velocidad máxima media en intervalos de 10 minutos(hora)
DESCASC
Precipitaciones diarias en mm
DESCASC
Precipitaciones de 00:00 a 06:00 en mm
DESCASC
Precipitaciones de 06:00 a 12:00 en mm
DESCASC
Precipitaciones de 12:00 a 18:00 en mm
DESCASC
Precipitaciones de 18:00 a 24:00 en mm
DESCASC
17-09-2017 25.5 (17:20) 9.1 (07:50) 17.3 7.22 (16:20) 3.89 (18:40) 0 0 0 0 0
16-09-2017 21.9 (15:10) 10.4 (08:30) 16.1 8.61 (15:20) 4.72 (15:40) 0 0 0 0 0
15-09-2017 25.7 (14:10) 15 (07:30) 20.4 10.83 (15:30) 5.28 (14:00) 0 0 0 0 0
14-09-2017 29.6 (16:50) 15.6 (00:00) 22.6 8.33 (17:20) 3.89 (16:20) 0 0 0 0 0
13-09-2017 32.6 (17:00) 16.7 (00:00) 24.6 8.61 (10:40) 3.89 (11:00) 0 0 0 0 0
12-09-2017 31 (16:10) 16.1 (00:00) 23.6 8.33 (16:10) 4.17 (15:10) 0 0 0 0 0
11-09-2017 30.3 (17:40) 12.7 (00:00) 21.5 7.78 (17:20) 4.17 (16:40) 0 0 0 0 0
10-09-2017 24.8 (16:00) 10.2 (00:00) 17.5 10 (00:30) 5.56 (00:10) 0 0 0 0 0
09-09-2017 24.2 (14:40) 16.5 (00:00) 20.4 10.28 (23:30) 5.28 (15:20) 0 0 0 0 0
08-09-2017 31.4 (16:00) 18.2 (00:00) 24.8 10 (15:10) 4.44 (17:30) 0 0 0 0 0
07-09-2017 31.6 (16:10) 17.9 (00:00) 24.8 8.61 (15:20) 4.44 (16:30) 0 0 0 0 0
06-09-2017 32.5 (17:20) 17.2 (00:00) 24.9 7.78 (16:20) 3.89 (16:30) 0 0 0 0 0
05-09-2017 32 (16:40) 16.9 (00:00) 24.4 7.5 (19:30) 4.17 (19:30) 0 0 0 0 0
04-09-2017 28.8 (15:40) 16.3 (00:00) 22.5 9.17 (18:40) 5 (16:10) 0 0 0 0 0
03-09-2017 30.1 (16:00) 16.9 (00:00) 23.5 7.5 (15:10) 4.17 (18:20) 0 0 0 0 0
02-09-2017 29.4 (16:30) 16.7 (00:00) 23.1 7.5 (16:40) 4.44 (16:40) 0 0 0 0 0
01-09-2017 29.4 (16:10) 16.3 (00:00) 22.8 6.94 (16:20) 4.17 (16:20) 0 0 0 0 0
31-08-2017 29.3 (17:20) 14.9 (00:00) 22.1 7.78 (16:50) 3.61 (15:10) 0.2 0 0.2 0 0
30-08-2017 25.2 (18:20) 12.7 (00:00) 19 8.06 (16:20) 3.06 (18:10) 0.2 0 0 0 0.2
29-08-2017 24.1 (15:20) 13.3 (00:00) 18.7 7.78 (13:50) 3.61 (14:50) 0 0 0 0 0
28-08-2017 22.6 (00:00) 16.6 (00:00) 19.6 10.56 (15:20) 3.89 (03:30) 12 0 0.4 11.6 0
27-08-2017 27.9 (17:50) 20.3 (00:00) 24.1 10 (18:20) 4.72 (18:10) 3.2 0 0 3.2 0
26-08-2017 34.5 (18:20) 23.6 (00:00) 29.1 9.17 (14:30) 5 (14:00) 0 0 0 0 0
25-08-2017 35.4 (16:50) 19.5 (00:00) 27.5 7.5 (16:50) 4.17 (17:30) 0 0 0 0 0
24-08-2017 35.8 (16:30) 19.5 (00:00) 27.6 7.78 (16:50) 3.61 (18:00) 0 0 0 0 0
23-08-2017 35.3 (17:20) 19.5 (00:00) 27.4 8.61 (16:10) 3.61 (16:10) 0 0 0 0 0
22-08-2017 34.8 (16:10) 19.1 (00:00) 26.9 6.94 (17:40) 3.89 (16:50) 0 0 0 0 0

Gráficas

Temp. máximas Temp. mínimas Temp. medias Precipitaciones Rachas de viento máximas Velocidades máximas media en intervalos de 10 minutos

Datos horarios

Fecha y hora oficial Temperatura (ºC) Velocidad del viento (km/h) Dirección del viento Racha (km/h) Dirección de racha Precipitación (mm) Presión (hPa) Tendencia (hPa) Humedad (%)
2017-09-20 23:00:00 -- -- -- -- -- -- -- -- --
2017-09-20 22:00:00 -- -- -- -- -- -- -- -- --
2017-09-20 21:00:00 21.8 3 Norte 12 Noroeste 0 -- -- 38
2017-09-20 20:00:00 24.5 6 Noroeste 16 Oeste 0 -- -- 33
2017-09-20 19:00:00 26.8 10 Noroeste 19 Oeste 0 -- -- 30
2017-09-20 18:00:00 27.4 15 Noroeste 26 Noroeste 0 -- -- 30
2017-09-20 17:00:00 28.1 8 Oeste 20 Oeste 0 -- -- 26
2017-09-20 16:00:00 27.9 9 Oeste 21 Noroeste 0 -- -- 26
2017-09-20 15:00:00 27.5 9 Sudoeste 18 Oeste 0 -- -- 26
2017-09-20 14:00:00 26.7 8 Sudoeste 25 Sudoeste 0 -- -- 26
2017-09-20 13:00:00 25.9 5 Sudeste 23 Este 0 -- -- 32
2017-09-20 12:00:00 24.2 9 Sudeste 23 Sudeste 0 -- -- 36
2017-09-20 11:00:00 21.4 6 Sudeste 15 Sur 0 -- -- 41
2017-09-20 10:00:00 16.6 5 Sur 13 Sudeste 0 -- -- 49
2017-09-20 09:00:00 13.9 5 Sudeste 15 Sudeste 0 -- -- 52
2017-09-20 08:00:00 13.8 9 Sudeste 15 Sudeste 0 -- -- 51
2017-09-20 07:00:00 12.4 0 Calma 11 Sur 0 -- -- 57
2017-09-20 06:00:00 14.5 7 Sudeste 11 Sudeste 0 -- -- 50
2017-09-20 05:00:00 14.5 7 Sudeste 12 Sudeste 0 -- -- 50
2017-09-20 04:00:00 14.4 3 Sudeste 6 Este 0 -- -- 50
2017-09-20 03:00:00 13.9 3 Este 10 Sudeste 0 -- -- 51
2017-09-20 02:00:00 15.5 6 Sudeste 10 Este 0 -- -- 47
2017-09-20 01:00:00 16.2 2 Sudeste 8 Sudeste 0 -- -- 45
2017-09-20 00:00:00 16.7 4 Sudeste 7 Sudeste 0 -- -- 45
2017-09-19 23:00:00 17.3 0 Calma 4 Este 0 -- -- 44
2017-09-19 22:00:00 18.6 0 Calma 6 Norte 0 -- -- 42
2017-09-19 21:00:00 21 4 Norte 12 Noroeste 0 -- -- 37
2017-09-19 20:00:00 23.4 7 Noroeste 20 Noroeste 0 -- -- 33
2017-09-19 19:00:00 25.5 11 Noroeste 21 Oeste 0 -- -- 29
2017-09-19 18:00:00 26.3 10 Oeste 22 Noroeste 0 -- -- 30
2017-09-19 17:00:00 26.5 7 Noroeste 22 Noroeste 0 -- -- 31
2017-09-19 16:00:00 26 10 Noroeste 21 Noroeste 0 -- -- 33
2017-09-19 15:00:00 25.3 13 Noroeste 23 Noroeste 0 -- -- 33
2017-09-19 14:00:00 24.6 12 Noroeste 21 Oeste 0 -- -- 36
2017-09-19 13:00:00 23.9 7 Noroeste 16 Noroeste 0 -- -- 37
2017-09-19 12:00:00 22 4 Sur 10 Sudeste 0 -- -- 41
2017-09-19 11:00:00 19.9 5 Sudeste 11 Sudeste 0 -- -- 48
2017-09-19 10:00:00 15.2 2 Sudeste 9 Sudeste 0 -- -- 63
2017-09-19 09:00:00 12.9 7 Sudeste 10 Sudeste 0 -- -- 68
2017-09-19 08:00:00 11.9 4 Sudeste 6 Sudeste 0 -- -- 71
2017-09-19 07:00:00 12 3 Sudeste 6 Sudeste 0 -- -- 70
2017-09-19 06:00:00 12.1 2 Sudeste 5 Este 0 -- -- 70
2017-09-19 05:00:00 12.7 0 Calma 6 Sudeste 0 -- -- 68
2017-09-19 04:00:00 13.8 5 Sudeste 8 Este 0 -- -- 65
2017-09-19 03:00:00 14.1 2 Sudeste 8 Sudeste 0 -- -- 65
2017-09-19 02:00:00 14.8 2 Este 4 Nordeste 0 -- -- 64
2017-09-19 01:00:00 15.4 3 Nordeste 4 Nordeste 0 -- -- 61
2017-09-19 00:00:00 17.2 0 Calma 14 Noroeste 0 -- -- 54
2017-09-18 23:00:00 18.8 11 Noroeste 21 Oeste 0 -- -- 47
2017-09-18 22:00:00 18.9 10 Noroeste 18 Noroeste 0 -- -- 46
2017-09-18 21:00:00 19.3 3 Noroeste 20 Noroeste 0 -- -- 43
2017-09-18 20:00:00 21.6 11 Noroeste 25 Oeste 0 -- -- 38
2017-09-18 19:00:00 23.1 11 Noroeste 32 Noroeste 0 -- -- 34
2017-09-18 18:00:00 23.5 18 Noroeste 29 Noroeste 0 -- -- 34
2017-09-18 17:00:00 24.1 14 Noroeste 26 Oeste 0 -- -- 29
2017-09-18 16:00:00 23.9 13 Noroeste 26 Oeste 0 -- -- 24
2017-09-18 15:00:00 23 17 Noroeste 26 Noroeste 0 -- -- 26
2017-09-18 14:00:00 22.4 15 Noroeste 25 Noroeste 0 -- -- 24
2017-09-18 13:00:00 21.2 13 Noroeste 27 Oeste 0 -- -- 28
2017-09-18 12:00:00 20.3 14 Noroeste 26 Noroeste 0 -- -- 30
2017-09-18 11:00:00 18.1 3 Oeste 7 Oeste 0 -- -- 38
2017-09-18 10:00:00 13.2 0 Calma 6 Sudeste 0 -- -- 52
2017-09-18 09:00:00 11.3 3 Sudeste 6 Este 0 -- -- 57
2017-09-18 08:00:00 10.6 0 Calma 6 Sudeste 0 -- -- 55
2017-09-18 07:00:00 11.7 0 Calma 6 Sudeste 0 -- -- 52
2017-09-18 06:00:00 12.6 4 Sudeste 7 Este 0 -- -- 50
2017-09-18 05:00:00 12.7 2 Sudeste 6 Sudeste 0 -- -- 52
2017-09-18 04:00:00 12.5 2 Este 6 Sudeste 0 -- -- 54
2017-09-18 03:00:00 12.8 0 Calma 5 Sur 0 -- -- 52
2017-09-18 02:00:00 13.6 2 Noroeste 5 Noroeste 0 -- -- 50
2017-09-18 01:00:00 15.1 0 Calma 4 Norte 0 -- -- 46
2017-09-18 00:00:00 15.2 2 Norte 5 Norte 0 -- -- 45
2017-09-17 23:00:00 15.9 0 Calma 9 Noroeste 0 -- -- 41
2017-09-17 22:00:00 17.2 0 Calma 11 Noroeste 0 -- -- 38
2017-09-17 21:00:00 19.4 6 Noroeste 18 Oeste 0 -- -- 33
2017-09-17 20:00:00 21.5 12 Noroeste 19 Noroeste 0 -- -- 30
2017-09-17 19:00:00 23.6 12 Noroeste 25 Noroeste 0 -- -- 29
2017-09-17 18:00:00 25 12 Noroeste 26 Noroeste 0 -- -- 29
2017-09-17 17:00:00 25.3 12 Noroeste 26 Noroeste 0 -- -- 27
2017-09-17 16:00:00 25 10 Noroeste 22 Noroeste 0 -- -- 25
2017-09-17 15:00:00 24.3 8 Noroeste 19 Norte 0 -- -- 26
2017-09-17 14:00:00 23.3 7 Noroeste 23 Noroeste 0 -- -- 27
2017-09-17 13:00:00 22.4 6 Sudoeste 17 Sudeste 0 -- -- 28
2017-09-17 12:00:00 21.2 4 Este 17 Este 0 -- -- 30
2017-09-17 11:00:00 18.9 5 Sudeste 10 Sudeste 0 -- -- 35
2017-09-17 10:00:00 14 4 Sur 9 Este 0 -- -- 49
2017-09-17 09:00:00 11.1 7 Sudeste 15 Sudeste 0 -- -- 54
2017-09-17 08:00:00 9.7 5 Sudeste 9 Sudeste 0 -- -- 58
2017-09-17 07:00:00 9.8 0 Calma 14 Sudeste 0 -- -- 57
2017-09-17 06:00:00 11.4 7 Sudeste 13 Sudeste 0 -- -- 51
2017-09-17 05:00:00 11.4 8 Sudeste 12 Sudeste 0 -- -- 51
2017-09-17 04:00:00 11.2 3 Sudeste 7 Este 0 -- -- 54
2017-09-17 03:00:00 11.3 0 Calma 4 Sudeste 0 -- -- 49
2017-09-17 02:00:00 11.7 0 Calma 5 Norte 0 -- -- 47
2017-09-17 01:00:00 12.7 0 Calma 5 Norte 0 -- -- 43
2017-09-17 00:00:00 13.3 2 Nordeste 8 Sudeste 0 -- -- 41
2017-09-16 23:00:00 14.6 6 Sudeste 9 Este 0 -- -- 37
2017-09-16 22:00:00 15.2 4 Sudeste 8 Sudeste 0 -- -- 36
2017-09-16 21:00:00 16.6 0 Calma 12 Oeste 0 -- -- 33
2017-09-16 20:00:00 19.8 9 Noroeste 21 Noroeste 0 -- -- 27
2017-09-16 19:00:00 21.3 12 Noroeste 24 Oeste 0 -- -- 28
2017-09-16 18:00:00 21.5 14 Noroeste 30 Noroeste 0 -- -- 29
2017-09-16 17:00:00 21.8 13 Noroeste 28 Noroeste 0 -- -- 27
2017-09-16 16:00:00 21.3 14 Noroeste 31 Noroeste 0 -- -- 28
2017-09-16 15:00:00 21.7 13 Oeste 29 Norte 0 -- -- 27
2017-09-16 14:00:00 21 12 Oeste 23 Oeste 0 -- -- 32
2017-09-16 13:00:00 20.3 9 Noroeste 23 Sudoeste 0 -- -- 30
2017-09-16 12:00:00 19 9 Noroeste 19 Oeste 0 -- -- 34
2017-09-16 11:00:00 17 6 Oeste 14 Oeste 0 -- -- 36
2017-09-16 10:00:00 13.8 4 Sudeste 11 Sudeste 0 -- -- 52
2017-09-16 09:00:00 11.4 5 Sudeste 10 Sudeste 0 -- -- 61
2017-09-16 08:00:00 10.7 5 Sudeste 9 Sudeste 0 -- -- 61
2017-09-16 07:00:00 11.1 6 Sudeste 9 Este 0 -- -- 60
2017-09-16 06:00:00 10.8 2 Sudeste 4 Sudeste 0 -- -- 61
2017-09-16 05:00:00 11.6 0 Calma 4 Sudeste 0 -- -- 59
2017-09-16 04:00:00 12.3 2 Este 7 Sudoeste 0 -- -- 56
2017-09-16 03:00:00 12.5 0 Calma 3 Sudeste 0 -- -- 53
2017-09-16 02:00:00 13.1 0 Calma 5 Nordeste 0 -- -- 49
2017-09-16 01:00:00 13.9 0 Calma 6 Sudeste 0 -- -- 48
2017-09-16 00:00:00 15.2 2 Sudeste 9 Noroeste 0 -- -- 43
2017-09-15 23:00:00 16.3 4 Este 13 Oeste 0 -- -- 40
2017-09-15 22:00:00 17.4 4 Noroeste 8 Noroeste 0 -- -- 39
2017-09-15 21:00:00 18.9 3 Oeste 19 Oeste 0 -- -- 37
2017-09-15 20:00:00 21.2 9 Oeste 23 Sudoeste 0 -- -- 31
2017-09-15 19:00:00 22.9 15 Oeste 28 Oeste 0 -- -- 25
2017-09-15 18:00:00 24.4 13 Oeste 33 Oeste 0 -- -- 20
2017-09-15 17:00:00 24.9 16 Oeste 33 Oeste 0 -- -- 16
2017-09-15 16:00:00 24.9 18 Oeste 39 Oeste 0 -- -- 12
2017-09-15 15:00:00 25.4 15 Oeste 33 Oeste 0 -- -- 24
2017-09-15 14:00:00 25.2 19 Oeste 33 Oeste 0 -- -- 29
2017-09-15 13:00:00 25.3 15 Oeste 31 Oeste 0 -- -- 29
2017-09-15 12:00:00 24.4 8 Sudoeste 19 Oeste 0 -- -- 36
2017-09-15 11:00:00 21.7 4 Sudoeste 12 Oeste 0 -- -- 45
2017-09-15 10:00:00 18.3 3 Este 9 Sudeste 0 -- -- 52
2017-09-15 09:00:00 15.8 7 Sudeste 13 Sudeste 0 -- -- 57
2017-09-15 08:00:00 15.1 5 Sudeste 9 Sudeste 0 -- -- 58
2017-09-15 07:00:00 15.6 2 Este 6 Sudeste 0 -- -- 56
2017-09-15 06:00:00 16.6 4 Nordeste 5 Este 0 -- -- 53
2017-09-15 05:00:00 16.9 0 Calma 3 Noroeste 0 -- -- 53
2017-09-15 04:00:00 17.2 0 Calma 5 Sudeste 0 -- -- 51
2017-09-15 03:00:00 18 3 Sur 6 Este 0 -- -- 50
2017-09-15 02:00:00 18.2 4 Sudeste 8 Este 0 -- -- 48
2017-09-15 01:00:00 19.1 2 Sudeste 3 Sudeste 0 -- -- 45
2017-09-15 00:00:00 20.3 0 Calma 6 Nordeste 0 -- -- 43
2017-09-14 23:00:00 21 4 Este 6 Este 0 -- -- 42
2017-09-14 22:00:00 22.2 4 Norte 6 Oeste 0 -- -- 37
2017-09-14 21:00:00 23.9 3 Noroeste 9 Oeste 0 -- -- 35
2017-09-14 20:00:00 25.1 7 Oeste 21 Oeste 0 -- -- 34
2017-09-14 19:00:00 27.7 12 Noroeste 23 Oeste 0 -- -- 29
2017-09-14 18:00:00 28.4 13 Noroeste 30 Noroeste 0 -- -- 27
2017-09-14 17:00:00 29.5 12 Noroeste 26 Noroeste 0 -- -- 27
2017-09-14 16:00:00 29.1 12 Noroeste 25 Norte 0 -- -- 31
2017-09-14 15:00:00 28.8 13 Noroeste 27 Noroeste 0 -- -- 30
2017-09-14 14:00:00 28.4 10 Noroeste 22 Oeste 0 -- -- 30
2017-09-14 13:00:00 27.7 10 Oeste 18 Oeste 0 -- -- 34
2017-09-14 12:00:00 26 5 Sudoeste 12 Sudoeste 0 -- -- 36
2017-09-14 11:00:00 23.7 3 Sudeste 8 Sudeste 0 -- -- 40
2017-09-14 10:00:00 19.3 2 Sur 5 Sudeste 0 -- -- 52
2017-09-14 09:00:00 16.5 4 Sudeste 8 Sudeste 0 -- -- 62
2017-09-14 08:00:00 16.1 0 Calma 9 Sudeste 0 -- -- 61
2017-09-14 07:00:00 17.3 6 Sudeste 10 Este 0 -- -- 53
2017-09-14 06:00:00 16.4 3 Sudeste 4 Sudeste 0 -- -- 55
2017-09-14 05:00:00 17.3 3 Sudeste 6 Sudeste 0 -- -- 49
2017-09-14 04:00:00 17.3 0 Calma 5 Noroeste 0 -- -- 47
2017-09-14 03:00:00 17.5 2 Este 5 Este 0 -- -- 45
2017-09-14 02:00:00 18.5 0 Calma 8 Sudeste 0 -- -- 44
2017-09-14 01:00:00 20.4 6 Sudeste 12 Sudeste 0 -- -- 40
2017-09-14 00:00:00 21.4 6 Sudeste 9 Sudeste 0 -- -- 37
2017-09-13 23:00:00 22.4 5 Sudeste 10 Sudeste 0 -- -- 35
2017-09-13 22:00:00 23.4 5 Sudeste 8 Sudeste 0 -- -- 35
2017-09-13 21:00:00 25.8 2 Nordeste 12 Oeste 0 -- -- 32
2017-09-13 20:00:00 29.6 9 Oeste 17 Oeste 0 -- -- 26
2017-09-13 19:00:00 31.5 7 Noroeste 19 Oeste 0 -- -- 24
2017-09-13 18:00:00 32.3 6 Noroeste 19 Oeste 0 -- -- 22
2017-09-13 17:00:00 32.6 11 Oeste 23 Oeste 0 -- -- 21
2017-09-13 16:00:00 31.9 10 Oeste 22 Sudoeste 0 -- -- 22
2017-09-13 15:00:00 31.6 9 Oeste 20 Oeste 0 -- -- 22
2017-09-13 14:00:00 30.2 6 Sudeste 21 Sudeste 0 -- -- 26
2017-09-13 13:00:00 28.9 8 Sudeste 23 Este 0 -- -- 28
2017-09-13 12:00:00 26.9 11 Sudeste 27 Este 0 -- -- 31
2017-09-13 11:00:00 24.1 14 Sudeste 31 Sudeste 0 -- -- 36
2017-09-13 10:00:00 21.7 12 Este 29 Este 0 -- -- 42
2017-09-13 09:00:00 20.1 8 Este 22 Este 0 -- -- 45
2017-09-13 08:00:00 16.7 2 Sur 15 Sur 0 -- -- 51
2017-09-13 07:00:00 17.3 6 Sudeste 17 Sudeste 0 -- -- 45
2017-09-13 06:00:00 17.8 5 Sudeste 19 Sudeste 0 -- -- 36
2017-09-13 05:00:00 17.8 5 Sudeste 15 Sur 0 -- -- 35
2017-09-13 04:00:00 17.7 2 Sur 13 Sudeste 0 -- -- 36
2017-09-13 03:00:00 18.8 5 Sudeste 13 Sudeste 0 -- -- 33
2017-09-13 02:00:00 19.6 8 Sudeste 13 Sudeste 0 -- -- 31
2017-09-13 01:00:00 18.8 3 Sudeste 4 Sudeste 0 -- -- 34
2017-09-13 00:00:00 19.6 0 Calma 3 Sudeste 0 -- -- 33
2017-09-12 23:00:00 20.9 0 Calma 5 Este 0 -- -- 31
2017-09-12 22:00:00 22.8 3 Este 6 Este 0 -- -- 30
2017-09-12 21:00:00 24.6 4 Sudeste 10 Noroeste 0 -- -- 28
2017-09-12 20:00:00 28.3 9 Noroeste 20 Noroeste 0 -- -- 22
2017-09-12 19:00:00 29.8 9 Noroeste 22 Oeste 0 -- -- 19
2017-09-12 18:00:00 30.5 12 Oeste 27 Noroeste 0 -- -- 19
2017-09-12 17:00:00 30.6 12 Noroeste 30 Oeste 0 -- -- 19
2017-09-12 16:00:00 30.9 12 Oeste 27 Oeste 0 -- -- 17
2017-09-12 15:00:00 30.3 13 Noroeste 25 Noroeste 0 -- -- 19
2017-09-12 14:00:00 29.5 13 Noroeste 24 Noroeste 0 -- -- 22
2017-09-12 13:00:00 28.4 9 Noroeste 16 Noroeste 0 -- -- 26
2017-09-12 12:00:00 26.3 4 Oeste 9 Sur 0 -- -- 31
2017-09-12 11:00:00 23.9 0 Calma 9 Norte 0 -- -- 36
2017-09-12 10:00:00 19.4 3 Oeste 6 Oeste 0 -- -- 50
2017-09-12 09:00:00 17.3 4 Sudeste 8 Sudeste 0 -- -- 50
2017-09-12 08:00:00 16.1 0 Calma 7 Sudeste 0 -- -- 52
2017-09-12 07:00:00 17.6 6 Sudeste 9 Sudeste 0 -- -- 47
2017-09-12 06:00:00 18.2 5 Sudeste 8 Sudeste 0 -- -- 45
2017-09-12 05:00:00 18 2 Sudeste 6 Sudeste 0 -- -- 44
2017-09-12 04:00:00 19.1 4 Sudeste 13 Sudeste 0 -- -- 40
2017-09-12 03:00:00 18.9 5 Sudeste 9 Sudeste 0 -- -- 42
2017-09-12 02:00:00 19.1 4 Sudeste 6 Este 0 -- -- 39
2017-09-12 01:00:00 19.6 3 Nordeste 4 Norte 0 -- -- 37
2017-09-12 00:00:00 19.9 0 Calma 4 Sudeste 0 -- -- 37
2017-09-11 23:00:00 21.1 3 Sudeste 6 Sudeste 0 -- -- 34
2017-09-11 22:00:00 22 2 Sudeste 4 Sudeste 0 -- -- 33
2017-09-11 21:00:00 23.9 2 Norte 13 Noroeste 0 -- -- 30
2017-09-11 20:00:00 27.9 8 Noroeste 21 Noroeste 0 -- -- 25
2017-09-11 19:00:00 29.1 13 Noroeste 23 Oeste 0 -- -- 26
2017-09-11 18:00:00 29.9 13 Noroeste 28 Oeste 0 -- -- 24
2017-09-11 17:00:00 30 12 Noroeste 24 Oeste 0 -- -- 23
2017-09-11 16:00:00 29.8 13 Noroeste 23 Oeste 0 -- -- 24
2017-09-11 15:00:00 29.3 12 Oeste 24 Oeste 0 -- -- 21
2017-09-11 14:00:00 28.6 8 Oeste 18 Oeste 0 -- -- 21
2017-09-11 13:00:00 26.7 4 Noroeste 13 Este 0 -- -- 21
2017-09-11 12:00:00 25.3 6 Sur 14 Sudeste 0 -- -- 23
2017-09-11 11:00:00 21.8 3 Sur 6 Oeste 0 -- -- 30
2017-09-11 10:00:00 16.8 2 Sur 5 Sudeste 0 -- -- 41
2017-09-11 09:00:00 14.6 5 Sudeste 16 Sudeste 0 -- -- 44
2017-09-11 08:00:00 13.7 7 Sudeste 12 Este 0 -- -- 45
2017-09-11 07:00:00 12.8 5 Este 13 Sudeste 0 -- -- 48
2017-09-11 06:00:00 14.4 6 Sudeste 12 Sudeste 0 -- -- 44
2017-09-11 05:00:00 14.5 5 Sudeste 13 Sudeste 0 -- -- 45
2017-09-11 04:00:00 14.6 4 Sudeste 10 Sudeste 0 -- -- 45
2017-09-11 03:00:00 14.8 5 Sudeste 9 Este 0 -- -- 45
2017-09-11 02:00:00 14.7 0 Calma 8 Este 0 -- -- 44
2017-09-11 01:00:00 15.1 0 Calma 8 Sudeste 0 -- -- 43
2017-09-11 00:00:00 15.8 3 Nordeste 8 Sudeste 0 -- -- 40
2017-09-10 23:00:00 16.5 5 Sudeste 10 Sudeste 0 -- -- 39
2017-09-10 22:00:00 17.4 0 Calma 7 Este 0 -- -- 37
2017-09-10 21:00:00 19.7 3 Noroeste 16 Noroeste 0 -- -- 33
2017-09-10 20:00:00 22.1 8 Noroeste 24 Noroeste 0 -- -- 28
2017-09-10 19:00:00 23.5 13 Noroeste 27 Noroeste 0 -- -- 25
2017-09-10 18:00:00 24.2 13 Noroeste 30 Oeste 0 -- -- 26
2017-09-10 17:00:00 24.5 12 Noroeste 29 Norte 0 -- -- 26
2017-09-10 16:00:00 24.8 11 Noroeste 29 Noroeste 0 -- -- 26
2017-09-10 15:00:00 23.3 12 Noroeste 20 Norte 0 -- -- 27
2017-09-10 14:00:00 22 12 Oeste 23 Oeste 0 -- -- 32
2017-09-10 13:00:00 20.7 9 Oeste 18 Oeste 0 -- -- 35
2017-09-10 12:00:00 19 6 Oeste 12 Noroeste 0 -- -- 43
2017-09-10 11:00:00 16.4 4 Noroeste 10 Noroeste 0 -- -- 49
2017-09-10 10:00:00 13.3 5 Noroeste 8 Noroeste 0 -- -- 59
2017-09-10 09:00:00 10.3 0 Calma 4 Norte 0 -- -- 75
2017-09-10 08:00:00 10.3 0 Calma 4 Nordeste 0 -- -- 73
2017-09-10 07:00:00 10.8 0 Calma 6 Norte 0 -- -- 71
2017-09-10 06:00:00 11.6 2 Nordeste 6 Nordeste 0 -- -- 67
2017-09-10 05:00:00 12.6 2 Nordeste 10 Noroeste 0 -- -- 63
2017-09-10 04:00:00 14.2 6 Noroeste 18 Noroeste 0 -- -- 58
2017-09-10 03:00:00 15.3 10 Noroeste 28 Noroeste 0 -- -- 55
2017-09-10 02:00:00 16.6 13 Noroeste 32 Noroeste 0 -- -- 51
2017-09-10 01:00:00 17.9 14 Noroeste 36 Noroeste 0 -- -- 50
2017-09-10 00:00:00 19.1 18 Noroeste 37 Oeste 0 -- -- 47
2017-09-09 23:00:00 19.5 13 Noroeste 32 Noroeste 0 -- -- 58
2017-09-09 22:00:00 19.8 16 Oeste 29 Oeste 0 -- -- 58
2017-09-09 21:00:00 19.8 14 Oeste 27 Oeste 0 -- -- 52
2017-09-09 20:00:00 21 15 Oeste 28 Noroeste 0 -- -- 45
2017-09-09 19:00:00 22.6 13 Noroeste 33 Noroeste 0 -- -- 42
2017-09-09 18:00:00 23.5 17 Noroeste 32 Oeste 0 -- -- 39
2017-09-09 17:00:00 24 18 Oeste 29 Oeste 0 -- -- 32
2017-09-09 16:00:00 22.7 13 Noroeste 34 Noroeste 0 -- -- 34
2017-09-09 15:00:00 23.8 13 Oeste 25 Noroeste 0 -- -- 30
2017-09-09 14:00:00 23.2 10 Oeste 23 Oeste 0 -- -- 33
2017-09-09 13:00:00 23.1 9 Noroeste 21 Oeste 0 -- -- 29
2017-09-09 12:00:00 22.9 12 Oeste 21 Oeste 0 -- -- 26
2017-09-09 11:00:00 21.3 8 Oeste 18 Oeste 0 -- -- 37
2017-09-09 10:00:00 18.3 0 Calma 5 Sudoeste 0 -- -- 43
2017-09-09 09:00:00 17.5 5 Sudeste 13 Sudeste 0 -- -- 47
2017-09-09 08:00:00 17.7 9 Sudeste 15 Este 0 -- -- 44
2017-09-09 07:00:00 16.9 8 Sudeste 13 Sudeste 0 -- -- 42
2017-09-09 06:00:00 16.7 4 Sudeste 8 Sudeste 0 -- -- 42
2017-09-09 05:00:00 16.9 0 Calma 8 Este 0 -- -- 42
2017-09-09 04:00:00 18.7 5 Sudeste 10 Este 0 -- -- 37
2017-09-09 03:00:00 19.3 6 Sudeste 11 Sudeste 0 -- -- 34
2017-09-09 02:00:00 19.9 6 Sudeste 12 Sudeste 0 -- -- 35
2017-09-09 01:00:00 21.5 4 Sudeste 10 Sudeste 0 -- -- 32
2017-09-09 00:00:00 21.9 3 Sur 10 Sur 0 -- -- 36
2017-09-08 23:00:00 22.3 4 Nordeste 7 Nordeste 0 -- -- 35
2017-09-08 22:00:00 23.3 0 Calma 4 Nordeste 0 -- -- 35
2017-09-08 21:00:00 25.3 3 Noroeste 15 Oeste 0 -- -- 32
2017-09-08 20:00:00 28.3 8 Oeste 19 Oeste 0 -- -- 28
2017-09-08 19:00:00 29.8 14 Oeste 27 Oeste 0 -- -- 26
2017-09-08 18:00:00 30.7 14 Noroeste 28 Oeste 0 -- -- 27
2017-09-08 17:00:00 31.1 15 Noroeste 27 Oeste 0 -- -- 29
2017-09-08 16:00:00 31.4 12 Oeste 36 Oeste 0 -- -- 30
2017-09-08 15:00:00 30.8 9 Oeste 22 Noroeste 0 -- -- 32
2017-09-08 14:00:00 30.3 10 Oeste 22 Oeste 0 -- -- 28
2017-09-08 13:00:00 29.5 8 Sudoeste 21 Noroeste 0 -- -- 32
2017-09-08 12:00:00 27.1 4 Noroeste 13 Sudoeste 0 -- -- 39
2017-09-08 11:00:00 25.2 5 Sudeste 13 Sudeste 0 -- -- 46
2017-09-08 10:00:00 21.5 6 Sudeste 15 Sudeste 0 -- -- 56
2017-09-08 09:00:00 18.3 4 Sudeste 11 Sudeste 0 -- -- 62
2017-09-08 08:00:00 18.4 7 Sudeste 16 Sudeste 0 -- -- 61
2017-09-08 07:00:00 18.5 5 Sudeste 10 Sudeste 0 -- -- 61
2017-09-08 06:00:00 18.8 7 Sudeste 14 Sudeste 0 -- -- 60
2017-09-08 05:00:00 19.3 6 Sudeste 12 Sudeste 0 -- -- 59
2017-09-08 04:00:00 20.1 7 Sudeste 12 Sudeste 0 -- -- 56
2017-09-08 03:00:00 20.7 7 Sudeste 9 Sudeste 0 -- -- 57
2017-09-08 02:00:00 21.4 3 Sudeste 8 Este 0 -- -- 52
2017-09-08 01:00:00 21.6 3 Nordeste 7 Este 0 -- -- 48
2017-09-08 00:00:00 22.2 3 Sudeste 9 Sudeste 0 -- -- 45
2017-09-07 23:00:00 22.9 3 Nordeste 7 Sudeste 0 -- -- 41
2017-09-07 22:00:00 23.8 2 Este 5 Noroeste 0 -- -- 39
2017-09-07 21:00:00 25.6 3 Norte 14 Oeste 0 -- -- 36
2017-09-07 20:00:00 28.7 6 Noroeste 15 Oeste 0 -- -- 31
2017-09-07 19:00:00 30 12 Noroeste 21 Noroeste 0 -- -- 28
2017-09-07 18:00:00 30.7 12 Oeste 26 Noroeste 0 -- -- 26
2017-09-07 17:00:00 31 9 Oeste 28 Noroeste 0 -- -- 29
2017-09-07 16:00:00 31.5 12 Noroeste 31 Oeste 0 -- -- 28
2017-09-07 15:00:00 30.8 11 Noroeste 25 Oeste 0 -- -- 32
2017-09-07 14:00:00 29.9 8 Noroeste 22 Noroeste 0 -- -- 35
2017-09-07 13:00:00 28.7 8 Noroeste 15 Noroeste 0 -- -- 38
2017-09-07 12:00:00 26.8 3 Este 9 Sudoeste 0 -- -- 41
2017-09-07 11:00:00 24.8 4 Sudoeste 9 Sudeste 0 -- -- 45
2017-09-07 10:00:00 21.5 5 Sudeste 10 Sudeste 0 -- -- 55
2017-09-07 09:00:00 17.9 0 Calma 8 Sudeste 0 -- -- 64
2017-09-07 08:00:00 18.3 4 Sudeste 9 Sudeste 0 -- -- 60
2017-09-07 07:00:00 19.1 6 Sudeste 10 Sudeste 0 -- -- 57
2017-09-07 06:00:00 19.5 8 Sudeste 15 Sudeste 0 -- -- 56
2017-09-07 05:00:00 20 6 Sudeste 10 Sudeste 0 -- -- 55
2017-09-07 04:00:00 20.4 7 Sudeste 12 Sudeste 0 -- -- 54
2017-09-07 03:00:00 21.1 7 Sudeste 11 Sudeste 0 -- -- 53
2017-09-07 02:00:00 21.4 5 Sudeste 9 Sudeste 0 -- -- 53
2017-09-07 01:00:00 22.4 5 Sur 18 Este 0 -- -- 50
2017-09-07 00:00:00 23.1 4 Sudeste 12 Sur 0 -- -- 48
2017-09-06 23:00:00 24.1 8 Sudeste 13 Sudeste 0 -- -- 44
2017-09-06 22:00:00 25.3 0 Calma 14 Noroeste 0 -- -- 40
2017-09-06 21:00:00 27.5 6 Noroeste 17 Oeste 0 -- -- 35
2017-09-06 20:00:00 29.8 9 Noroeste 18 Oeste 0 -- -- 32
2017-09-06 19:00:00 31.3 10 Noroeste 21 Oeste 0 -- -- 31
2017-09-06 18:00:00 32.4 12 Noroeste 22 Norte 0 -- -- 30
2017-09-06 17:00:00 32.3 10 Noroeste 28 Oeste 0 -- -- 30
2017-09-06 16:00:00 31.7 8 Oeste 24 Noroeste 0 -- -- 32
2017-09-06 15:00:00 31.2 10 Noroeste 22 Noroeste 0 -- -- 34
2017-09-06 14:00:00 30.8 9 Noroeste 21 Oeste 0 -- -- 34
2017-09-06 13:00:00 29.8 5 Oeste 11 Sudoeste 0 -- -- 34
2017-09-06 12:00:00 28.3 5 Sudeste 13 Oeste 0 -- -- 38
2017-09-06 11:00:00 25.6 4 Sudeste 9 Sur 0 -- -- 45
2017-09-06 10:00:00 21.7 4 Sudeste 13 Sudeste 0 -- -- 53
2017-09-06 09:00:00 18.6 6 Sudeste 10 Sudeste 0 -- -- 60
2017-09-06 08:00:00 18.1 3 Sudeste 14 Sudeste 0 -- -- 59
2017-09-06 07:00:00 18.7 9 Sudeste 13 Sudeste 0 -- -- 57
2017-09-06 06:00:00 18.5 2 Sudeste 9 Sudeste 0 -- -- 58
2017-09-06 05:00:00 18.6 2 Sudeste 8 Sudeste 0 -- -- 58
2017-09-06 04:00:00 19.6 3 Sudeste 9 Sudeste 0 -- -- 59
2017-09-06 03:00:00 20.2 5 Sudeste 9 Sudeste 0 -- -- 58
2017-09-06 02:00:00 20.9 6 Sudeste 10 Este 0 -- -- 57
2017-09-06 01:00:00 21.5 5 Sudeste 10 Sudeste 0 -- -- 53
2017-09-06 00:00:00 22.4 6 Sudeste 9 Sudeste 0 -- -- 46
2017-09-05 23:00:00 23.2 3 Este 8 Oeste 0 -- -- 47
2017-09-05 22:00:00 25 3 Oeste 18 Oeste 0 -- -- 48
2017-09-05 21:00:00 26.8 11 Noroeste 20 Noroeste 0 -- -- 42
2017-09-05 20:00:00 29 12 Noroeste 27 Oeste 0 -- -- 35
2017-09-05 19:00:00 31 8 Oeste 18 Oeste 0 -- -- 32
2017-09-05 18:00:00 31.6 9 Noroeste 21 Oeste 0 -- -- 32
2017-09-05 17:00:00 31.7 10 Noroeste 23 Noroeste 0 -- -- 31
2017-09-05 16:00:00 31.7 8 Sudoeste 23 Oeste 0 -- -- 27
2017-09-05 15:00:00 31.1 8 Oeste 17 Oeste 0 -- -- 28
2017-09-05 14:00:00 29.8 8 Sudoeste 18 Sudoeste 0 -- -- 28
2017-09-05 13:00:00 28.7 5 Noroeste 14 Sur 0 -- -- 31
2017-09-05 12:00:00 27.6 5 Sudeste 15 Sudeste 0 -- -- 34
2017-09-05 11:00:00 25.8 5 Sudeste 12 Sudeste 0 -- -- 37
2017-09-05 10:00:00 20.7 3 Sudeste 15 Sudeste 0 -- -- 51
2017-09-05 09:00:00 17.7 4 Sudeste 14 Este 0 -- -- 58
2017-09-05 08:00:00 17.3 7 Sudeste 13 Sudeste 0 -- -- 55
2017-09-05 07:00:00 17.7 6 Sudeste 12 Sudeste 0 -- -- 54
2017-09-05 06:00:00 17.3 6 Sudeste 9 Este 0 -- -- 56
2017-09-05 05:00:00 17.1 0 Calma 9 Este 0 -- -- 58
2017-09-05 04:00:00 18 5 Sudeste 8 Sudeste 0 -- -- 54
2017-09-05 03:00:00 18.2 0 Calma 4 Este 0 -- -- 55
2017-09-05 02:00:00 18.8 3 Este 9 Sudeste 0 -- -- 52
2017-09-05 01:00:00 19.2 3 Sudeste 6 Este 0 -- -- 50
2017-09-05 00:00:00 20.3 0 Calma 8 Este 0 -- -- 48
2017-09-04 23:00:00 21.2 0 Calma 8 Sudeste 0 -- -- 46
2017-09-04 22:00:00 22 0 Calma 5 Sudeste 0 -- -- 44
2017-09-04 21:00:00 24.4 0 Calma 15 Oeste 0 -- -- 39
2017-09-04 20:00:00 27.2 9 Noroeste 24 Norte 0 -- -- 33
2017-09-04 19:00:00 28.3 13 Noroeste 33 Noroeste 0 -- -- 30
2017-09-04 18:00:00 28.5 15 Oeste 31 Noroeste 0 -- -- 27
2017-09-04 17:00:00 28.8 15 Noroeste 32 Oeste 0 -- -- 27
2017-09-04 16:00:00 28.8 15 Noroeste 26 Noroeste 0 -- -- 26
2017-09-04 15:00:00 28.1 15 Noroeste 25 Noroeste 0 -- -- 27
2017-09-04 14:00:00 27.4 13 Noroeste 24 Oeste 0 -- -- 31
2017-09-04 13:00:00 27 13 Noroeste 22 Norte 0 -- -- 25
2017-09-04 12:00:00 25.5 7 Oeste 18 Oeste 0 -- -- 32
2017-09-04 11:00:00 23.5 6 Oeste 12 Oeste 0 -- -- 45
2017-09-04 10:00:00 20.5 8 Sudeste 15 Sudeste 0 -- -- 61
2017-09-04 09:00:00 17.5 8 Sudeste 15 Sudeste 0 -- -- 69
2017-09-04 08:00:00 16.5 5 Sudeste 8 Este 0 -- -- 73
2017-09-04 07:00:00 16.7 0 Calma 2 Sudeste 0 -- -- 72
2017-09-04 06:00:00 17.5 0 Calma 4 Este 0 -- -- 69
2017-09-04 05:00:00 18.5 0 Calma 5 Norte 0 -- -- 64
2017-09-04 04:00:00 19.1 2 Nordeste 5 Nordeste 0 -- -- 66
2017-09-04 03:00:00 19.3 0 Calma 4 Sudoeste 0 -- -- 68
2017-09-04 02:00:00 19.6 3 Sudeste 6 Sudeste 0 -- -- 63
2017-09-04 01:00:00 19.6 0 Calma 5 Este 0 -- -- 62
2017-09-04 00:00:00 21.1 3 Nordeste 6 Nordeste 0 -- -- 57
2017-09-03 23:00:00 21.2 3 Sudeste 8 Sudeste 0 -- -- 57
2017-09-03 22:00:00 22.5 0 Calma 5 Norte 0 -- -- 54
2017-09-03 21:00:00 24.7 5 Noroeste 18 Oeste 0 -- -- 47
2017-09-03 20:00:00 26 11 Noroeste 20 Noroeste 0 -- -- 45
2017-09-03 19:00:00 27.4 13 Noroeste 24 Oeste 0 -- -- 42
2017-09-03 18:00:00 28.4 12 Noroeste 24 Oeste 0 -- -- 43
2017-09-03 17:00:00 29.6 12 Noroeste 23 Noroeste 0 -- -- 36
2017-09-03 16:00:00 30.1 7 Norte 27 Noroeste 0 -- -- 35
2017-09-03 15:00:00 29.1 12 Oeste 23 Sudoeste 0 -- -- 39
2017-09-03 14:00:00 28.4 5 Oeste 15 Oeste 0 -- -- 40
2017-09-03 13:00:00 27 6 Sudoeste 13 Sur 0 -- -- 42
2017-09-03 12:00:00 25 3 Sur 10 Sur 0 -- -- 54
2017-09-03 11:00:00 23.1 5 Sudeste 17 Sur 0 -- -- 62
2017-09-03 10:00:00 20.8 8 Este 17 Este 0 -- -- 65
2017-09-03 09:00:00 18.3 4 Sudeste 10 Nordeste 0 -- -- 77
2017-09-03 08:00:00 17.1 4 Sudeste 8 Sudeste 0 -- -- 84
2017-09-03 07:00:00 17.7 3 Sudeste 12 Sudeste 0 -- -- 83
2017-09-03 06:00:00 18.1 4 Sur 12 Este 0 -- -- 82
2017-09-03 05:00:00 19 3 Sudeste 10 Sudeste 0 -- -- 79
2017-09-03 04:00:00 19 3 Sudeste 11 Sudeste 0 -- -- 80
2017-09-03 03:00:00 19.6 5 Sudeste 14 Este 0 -- -- 78
2017-09-03 02:00:00 19.6 4 Sudeste 12 Sudeste 0 -- -- 78
2017-09-03 01:00:00 20.1 4 Sudeste 12 Sudeste 0 -- -- 76
2017-09-03 00:00:00 20.6 3 Sudeste 13 Sudeste 0 -- -- 74
2017-09-02 23:00:00 21.5 4 Este 12 Este 0 -- -- 71
2017-09-02 22:00:00 22.4 3 Sudeste 6 Sudeste 0 -- -- 68
2017-09-02 21:00:00 24.1 4 Sudoeste 19 Oeste 0 -- -- 62
2017-09-02 20:00:00 26.5 10 Oeste 25 Noroeste 0 -- -- 52
2017-09-02 19:00:00 28.3 12 Noroeste 20 Oeste 0 -- -- 46
2017-09-02 18:00:00 29.3 12 Noroeste 24 Oeste 0 -- -- 45
2017-09-02 17:00:00 29.1 13 Noroeste 27 Noroeste 0 -- -- 46
2017-09-02 16:00:00 27.3 9 Noroeste 17 Noroeste 0 -- -- 49
2017-09-02 15:00:00 26.5 5 Oeste 16 Oeste 0 -- -- 51
2017-09-02 14:00:00 26.4 9 Noroeste 17 Sudeste 0 -- -- 51
2017-09-02 13:00:00 26.2 7 Sudeste 19 Sudeste 0 -- -- 54
2017-09-02 12:00:00 24.8 7 Sudeste 18 Sudeste 0 -- -- 57
2017-09-02 11:00:00 22 6 Sudeste 15 Sudeste 0 -- -- 72
2017-09-02 10:00:00 19.3 6 Sudeste 12 Sudeste 0 -- -- 82
2017-09-02 09:00:00 17 3 Sur 9 Sudeste 0 -- -- 88
2017-09-02 08:00:00 16.8 3 Sudeste 8 Sudeste 0 -- -- 88
2017-09-02 07:00:00 17.1 4 Sudeste 10 Sur 0 -- -- 88
2017-09-02 06:00:00 17.3 0 Calma 10 Sur 0 -- -- 85
2017-09-02 05:00:00 17.5 0 Calma 12 Sudeste 0 -- -- 84
2017-09-02 04:00:00 18.2 6 Sudeste 12 Sudeste 0 -- -- 82
2017-09-02 03:00:00 18.4 3 Sudeste 7 Sudoeste 0 -- -- 82
2017-09-02 02:00:00 19.1 3 Sur 13 Sudeste 0 -- -- 79
2017-09-02 01:00:00 19.9 5 Sudeste 13 Este 0 -- -- 76
2017-09-02 00:00:00 20.3 7 Sudeste 16 Sudeste 0 -- -- 74
2017-09-01 23:00:00 21.6 7 Este 15 Sudeste 0 -- -- 66
2017-09-01 22:00:00 23.2 5 Sur 14 Oeste 0 -- -- 60
2017-09-01 21:00:00 25.4 7 Noroeste 17 Noroeste 0 -- -- 46
2017-09-01 20:00:00 27.6 11 Noroeste 21 Norte 0 -- -- 41
2017-09-01 19:00:00 29.1 10 Norte 21 Noroeste 0 -- -- 38
2017-09-01 18:00:00 28.7 12 Noroeste 24 Noroeste 0 -- -- 40
2017-09-01 17:00:00 28.7 15 Noroeste 25 Oeste 0 -- -- 40
2017-09-01 16:00:00 29.3 14 Noroeste 24 Noroeste 0 -- -- 39
2017-09-01 15:00:00 29.1 8 Noroeste 22 Noroeste 0 -- -- 41
2017-09-01 14:00:00 28.4 7 Noroeste 20 Oeste 0 -- -- 41
2017-09-01 13:00:00 26.8 8 Oeste 17 Noroeste 0 -- -- 47
2017-09-01 12:00:00 25.1 4 Norte 17 Noroeste 0 -- -- 53
2017-09-01 11:00:00 22.6 3 Noroeste 8 Noroeste 0 -- -- 62
2017-09-01 10:00:00 19.4 0 Calma 9 Sudeste 0 -- -- 73
2017-09-01 09:00:00 17.8 6 Sudeste 11 Este 0 -- -- 79
2017-09-01 08:00:00 16.7 5 Sudeste 8 Este 0 -- -- 81
2017-09-01 07:00:00 16.3 0 Calma 4 Este 0 -- -- 82
2017-09-01 06:00:00 17 0 Calma 8 Sudeste 0 -- -- 78
2017-09-01 05:00:00 18.1 4 Sudeste 8 Sur 0 -- -- 74
2017-09-01 04:00:00 18.8 4 Sudeste 10 Sur 0 -- -- 71
2017-09-01 03:00:00 19.6 5 Sudeste 10 Sudeste 0 -- -- 67
2017-09-01 02:00:00 20.2 4 Sudeste 10 Este 0 -- -- 65
2017-09-01 01:00:00 20.1 4 Sudeste 11 Sudeste 0 -- -- 61
2017-09-01 00:00:00 20.3 0 Calma -- -- 0 -- -- 62
2017-08-31 23:00:00 21.1 0 Calma 3 Norte 0 -- -- 60
2017-08-31 22:00:00 22.4 0 Calma 10 Noroeste 0 -- -- 56
2017-08-31 21:00:00 24.9 6 Noroeste 17 Noroeste 0 -- -- 48
2017-08-31 20:00:00 27.2 9 Noroeste 21 Oeste 0 -- -- 43
2017-08-31 19:00:00 28.3 12 Noroeste 20 Oeste 0 -- -- 41
2017-08-31 18:00:00 28.8 10 Noroeste 22 Noroeste 0 -- -- 40
2017-08-31 17:00:00 29 13 Noroeste 28 Oeste 0 -- -- 41
2017-08-31 16:00:00 28.7 8 Noroeste 20 Noroeste 0 -- -- 41
2017-08-31 15:00:00 27.5 10 Oeste 21 Oeste 0 -- -- 45
2017-08-31 14:00:00 26.7 7 Noroeste 17 Nordeste 0 -- -- 46
2017-08-31 13:00:00 24.3 8 Noroeste 14 Noroeste 0 -- -- 53
2017-08-31 12:00:00 23.2 5 Noroeste 11 Noroeste 0.2 -- -- 56
2017-08-31 11:00:00 20.8 3 Oeste 8 Oeste 0 -- -- 63
2017-08-31 10:00:00 17.6 3 Sudeste 10 Sudeste 0 -- -- 77
2017-08-31 09:00:00 15.5 4 Sudeste 10 Sudeste 0 -- -- 84
2017-08-31 08:00:00 14.9 4 Sudeste 7 Este 0 -- -- 89
2017-08-31 07:00:00 15 3 Sudeste 7 Sudeste 0 -- -- 90
2017-08-31 06:00:00 15.3 0 Calma 7 Norte 0 -- -- 89
2017-08-31 05:00:00 16.4 3 Norte 12 Norte 0 -- -- 84
2017-08-31 04:00:00 15.9 2 Sudeste 8 Sudeste 0 -- -- 86
2017-08-31 03:00:00 16.7 2 Sudeste 5 Este 0 -- -- 85
2017-08-31 02:00:00 17 5 Sudeste 9 Sudeste 0 -- -- 85
2017-08-31 01:00:00 16.9 2 Nordeste 5 Nordeste 0 -- -- 84
2017-08-31 00:00:00 17.1 0 Calma 4 Este 0 -- -- 83
2017-08-30 23:00:00 18.4 3 Sudeste 6 Sudeste 0 -- -- 82
2017-08-30 22:00:00 18.7 2 Nordeste 10 Sudeste 0 -- -- 80
2017-08-30 21:00:00 21.4 3 Sudoeste 12 Noroeste 0.2 -- -- 60
2017-08-30 20:00:00 21.9 6 Noroeste 22 Noroeste 0 -- -- 56
2017-08-30 19:00:00 23.1 10 Noroeste 21 Noroeste 0 -- -- 52
2017-08-30 18:00:00 25 10 Noroeste 18 Noroeste 0 -- -- 48
2017-08-30 17:00:00 23.8 7 Oeste 29 Nordeste 0 -- -- 47
2017-08-30 16:00:00 24.1 3 Este 11 Este 0 -- -- 43
2017-08-30 15:00:00 22.8 4 Norte 15 Norte 0 -- -- 47
2017-08-30 14:00:00 22.6 5 Oeste 16 Oeste 0 -- -- 51
2017-08-30 13:00:00 20.7 6 Oeste 16 Oeste 0 -- -- 58
2017-08-30 12:00:00 18.5 4 Oeste 9 Oeste 0 -- -- 70
2017-08-30 11:00:00 16.7 4 Sudeste 5 Sudeste 0 -- -- 77
2017-08-30 10:00:00 14.7 0 Calma 9 Sudeste 0 -- -- 87
2017-08-30 09:00:00 13.3 0 Calma 4 Este 0 -- -- 95
2017-08-30 08:00:00 12.8 2 Este 6 Este 0 -- -- 93
2017-08-30 07:00:00 13.3 4 Sur 12 Sudeste 0 -- -- 92
2017-08-30 06:00:00 13.8 5 Sudeste 9 Sudeste 0 -- -- 90
2017-08-30 05:00:00 13.4 4 Sudeste 10 Este 0 -- -- 92
2017-08-30 04:00:00 13.4 0 Calma -- -- 0 -- -- 94
2017-08-30 03:00:00 13.6 0 Calma 4 Este 0 -- -- 93
2017-08-30 02:00:00 14.1 0 Calma 6 Este 0 -- -- 91
2017-08-30 01:00:00 15 0 Calma 4 Este 0 -- -- 89
2017-08-30 00:00:00 16 0 Calma 9 Noroeste 0 -- -- 85
2017-08-29 23:00:00 16.9 6 Norte 13 Noroeste 0 -- -- 81
2017-08-29 22:00:00 18 3 Nordeste 12 Noroeste 0 -- -- 78
2017-08-29 21:00:00 19.2 3 Noroeste 12 Norte 0 -- -- 74
2017-08-29 20:00:00 20.5 7 Noroeste 15 Noroeste 0 -- -- 70
2017-08-29 19:00:00 21.4 6 Noroeste 18 Noroeste 0 -- -- 66
2017-08-29 18:00:00 21.6 12 Noroeste 22 Norte 0 -- -- 66
2017-08-29 17:00:00 23.5 7 Oeste 21 Sudoeste 0 -- -- 54
2017-08-29 16:00:00 23.2 8 Sudoeste 22 Noroeste 0 -- -- 50
2017-08-29 15:00:00 23.3 8 Oeste 23 Sudoeste 0 -- -- 43
2017-08-29 14:00:00 22.9 10 Sudoeste 28 Sudoeste 0 -- -- 39
2017-08-29 13:00:00 22.2 10 Sur 23 Sudoeste 0 -- -- 40
2017-08-29 12:00:00 20.7 8 Sur 22 Sudeste 0 -- -- 42
2017-08-29 11:00:00 18.6 8 Sudeste 21 Este 0 -- -- 62
2017-08-29 10:00:00 15.1 6 Sudeste 13 Este 0 -- -- 88
2017-08-29 09:00:00 13.4 2 Oeste 5 Este 0 -- -- 97
2017-08-29 08:00:00 13.3 2 Sudeste 5 Nordeste 0 -- -- 97
2017-08-29 07:00:00 13.7 3 Este 4 Sudeste 0 -- -- 96
2017-08-29 06:00:00 14.8 2 Norte 10 Noroeste 0 -- -- 96
2017-08-29 05:00:00 15.3 3 Norte 7 Norte 0 -- -- 96
2017-08-29 04:00:00 15.5 3 Norte 10 Norte 0 -- -- 94
2017-08-29 03:00:00 15.8 4 Norte 15 Noroeste 0 -- -- 95
2017-08-29 02:00:00 16.3 8 Noroeste 14 Noroeste 0 -- -- 95
2017-08-29 01:00:00 16.4 0 Calma 5 Sudeste 0 -- -- 94
2017-08-29 00:00:00 16.9 4 Sudeste 9 Sudeste 0 -- -- 95
2017-08-28 23:00:00 17.4 2 Sur 5 Sur 0 -- -- 95
2017-08-28 22:00:00 17.6 0 Calma 5 Nordeste 0 -- -- 94
2017-08-28 21:00:00 18.1 3 Norte 9 Norte 0 -- -- 93
2017-08-28 20:00:00 18.7 7 Norte 13 Norte 0 -- -- 90
2017-08-28 19:00:00 19.2 4 Norte 12 Norte 0 -- -- 84
2017-08-28 18:00:00 18.2 5 Norte 10 Norte 0 -- -- 84
2017-08-28 17:00:00 17.4 2 Noroeste 10 Noroeste 0.2 -- -- 88
2017-08-28 16:00:00 17 2 Noroeste 38 Oeste 11.4 -- -- 88
2017-08-28 15:00:00 22.2 11 Sur 35 Sudoeste 0 -- -- 56
2017-08-28 14:00:00 21.4 10 Sur 26 Sur 0 -- -- 60
2017-08-28 13:00:00 19.9 4 Noroeste 11 Norte 0 -- -- 80
2017-08-28 12:00:00 20 3 Sur 30 Sudeste 0.4 -- -- 71
2017-08-28 11:00:00 20.1 8 Sudeste 27 Sudeste 0 -- -- 70
2017-08-28 10:00:00 17.4 0 Calma 10 Norte 0 -- -- 82
2017-08-28 09:00:00 16.7 5 Noroeste 10 Norte 0 -- -- 84
2017-08-28 08:00:00 16.8 5 Norte 11 Norte 0 -- -- 84
2017-08-28 07:00:00 17.1 3 Norte 6 Norte 0 -- -- 81
2017-08-28 06:00:00 19.1 0 Calma 13 Sur 0 -- -- 70
2017-08-28 05:00:00 20.8 3 Sudoeste 22 Este 0 -- -- 59
2017-08-28 04:00:00 21.2 10 Sudeste 37 Sudeste 0 -- -- 61
2017-08-28 03:00:00 21.4 6 Sur 15 Sur 0 -- -- 64
2017-08-28 02:00:00 20.5 4 Sudeste 10 Sur 0 -- -- 69
2017-08-28 01:00:00 22 3 Sur 13 Este 0 -- -- 63
2017-08-28 00:00:00 22.6 5 Sur 20 Este 0 -- -- 58
2017-08-27 23:00:00 22.6 5 Sur 13 Sudeste 0 -- -- 57
2017-08-27 22:00:00 22.8 5 Sudeste 11 Sudeste 0 -- -- 57
2017-08-27 21:00:00 24.3 6 Sudeste 17 Sudeste 0 -- -- 53
2017-08-27 20:00:00 26.6 9 Sudeste 28 Sudeste 0 -- -- 46
2017-08-27 19:00:00 27.8 15 Sudeste 36 Sudeste 0 -- -- 44
2017-08-27 18:00:00 27.9 14 Sudeste 34 Sudeste 0 -- -- 44
2017-08-27 17:00:00 25.8 11 Sudeste 27 Sudeste 0.2 -- -- 54
2017-08-27 16:00:00 20.3 8 Norte 23 Noroeste 0 -- -- 80
2017-08-27 15:00:00 21.2 9 Noroeste 15 Noroeste 1.6 -- -- 79
2017-08-27 14:00:00 21.2 8 Noroeste 17 Nordeste 1 -- -- 76
2017-08-27 13:00:00 22 2 Sudeste 9 Sudoeste 0.4 -- -- 72
2017-08-27 12:00:00 23.8 4 Oeste 10 Oeste 0 -- -- 55
2017-08-27 11:00:00 24.4 7 Norte 26 Noroeste 0 -- -- 49
2017-08-27 10:00:00 25.3 3 Oeste 18 Nordeste 0 -- -- 42
2017-08-27 09:00:00 25.5 6 Sudeste 30 Sudeste 0 -- -- 39
2017-08-27 08:00:00 24.7 12 Este 26 Sudeste 0 -- -- 41
2017-08-27 07:00:00 22.9 4 Sudeste 11 Sudeste 0 -- -- 47
2017-08-27 06:00:00 24 5 Sudeste 19 Sudeste 0 -- -- 45
2017-08-27 05:00:00 25 10 Sudeste 29 Sudeste 0 -- -- 43
2017-08-27 04:00:00 24.3 9 Sudeste 26 Este 0 -- -- 50
2017-08-27 03:00:00 24.2 12 Este 27 Sudeste 0 -- -- 52
2017-08-27 02:00:00 25 11 Sudeste 28 Este 0 -- -- 46
2017-08-27 01:00:00 25.3 10 Este 20 Este 0 -- -- 46
2017-08-27 00:00:00 25.5 5 Sudeste 10 Este 0 -- -- 41
2017-08-26 23:00:00 26.4 3 Sudeste 12 Sudeste 0 -- -- 39
2017-08-26 22:00:00 27.1 3 Este 10 Nordeste 0 -- -- 38
2017-08-26 21:00:00 28.7 4 Noroeste 22 Noroeste 0 -- -- 35
2017-08-26 20:00:00 31 13 Noroeste 24 Noroeste 0 -- -- 32
2017-08-26 19:00:00 33.3 12 Noroeste 23 Noroeste 0 -- -- 29
2017-08-26 18:00:00 34.2 8 Norte 17 Noroeste 0 -- -- 28
2017-08-26 17:00:00 33.5 9 Noroeste 21 Noroeste 0 -- -- 29
2017-08-26 16:00:00 32.4 12 Norte 23 Noroeste 0 -- -- 30
2017-08-26 15:00:00 32.8 12 Norte 33 Norte 0 -- -- 30
2017-08-26 14:00:00 33 18 Noroeste 28 Norte 0 -- -- 29
2017-08-26 13:00:00 33.7 9 Oeste 24 Este 0 -- -- 25
2017-08-26 12:00:00 32.4 9 Sudeste 22 Este 0 -- -- 27
2017-08-26 11:00:00 30.4 12 Sudeste 30 Este 0 -- -- 30
2017-08-26 10:00:00 27.6 11 Este 23 Este 0 -- -- 35
2017-08-26 09:00:00 25.3 7 Sudeste 18 Sudeste 0 -- -- 39
2017-08-26 08:00:00 24.2 2 Sudeste 25 Este 0 -- -- 42
2017-08-26 07:00:00 25.3 8 Este 25 Este 0 -- -- 41
2017-08-26 06:00:00 25.1 10 Sudeste 21 Este 0 -- -- 42
2017-08-26 05:00:00 24.3 5 Sudeste 18 Sudeste 0 -- -- 44
2017-08-26 04:00:00 25.2 4 Sudeste 17 Este 0 -- -- 40
2017-08-26 03:00:00 24.3 3 Oeste 10 Sur 0 -- -- 43
2017-08-26 02:00:00 24.8 4 Sudeste 10 Sudeste 0 -- -- 39
2017-08-26 01:00:00 25.8 7 Este 14 Este 0 -- -- 38
2017-08-26 00:00:00 25.4 3 Sudeste 9 Sudeste 0 -- -- 34
2017-08-25 23:00:00 26.1 2 Sudeste 6 Sudeste 0 -- -- 33
2017-08-25 22:00:00 27.5 0 Calma 8 Noroeste 0 -- -- 30
2017-08-25 21:00:00 29.4 0 Calma 6 Sur 0 -- -- 27
2017-08-25 20:00:00 32.3 4 Sur 14 Sudeste 0 -- -- 23
2017-08-25 19:00:00 32.2 4 Sudoeste 15 Oeste 0 -- -- 23
2017-08-25 18:00:00 33.2 8 Oeste 25 Noroeste 0 -- -- 21
2017-08-25 17:00:00 35.4 13 Oeste 27 Oeste 0 -- -- 20
2017-08-25 16:00:00 33.9 9 Oeste 25 Oeste 0 -- -- 23
2017-08-25 15:00:00 34.2 13 Oeste 24 Oeste 0 -- -- 18
2017-08-25 14:00:00 33.8 10 Oeste 23 Oeste 0 -- -- 18
2017-08-25 13:00:00 33.1 6 Oeste 15 Sur 0 -- -- 20
2017-08-25 12:00:00 32.1 8 Sudeste 18 Este 0 -- -- 24
2017-08-25 11:00:00 29.6 7 Sudeste 19 Sudeste 0 -- -- 28
2017-08-25 10:00:00 24.9 5 Sur 15 Sudeste 0 -- -- 40
2017-08-25 09:00:00 22 4 Sur 17 Sudeste 0 -- -- 45
2017-08-25 08:00:00 20.7 5 Sur 15 Sur 0 -- -- 44
2017-08-25 07:00:00 20.4 7 Sudeste 15 Este 0 -- -- 44
2017-08-25 06:00:00 19.8 0 Calma 7 Este 0 -- -- 45
2017-08-25 05:00:00 20.9 3 Sur 10 Sudeste 0 -- -- 42
2017-08-25 04:00:00 21.7 4 Nordeste 10 Este 0 -- -- 40
2017-08-25 03:00:00 22.9 6 Sudeste 10 Sudeste 0 -- -- 38
2017-08-25 02:00:00 23 5 Este 8 Sudeste 0 -- -- 38
2017-08-25 01:00:00 23.7 2 Norte 7 Nordeste 0 -- -- 37
2017-08-25 00:00:00 24.9 0 Calma 7 Noroeste 0 -- -- 35
2017-08-24 23:00:00 26 0 Calma 10 Noroeste 0 -- -- 33
2017-08-24 22:00:00 28.1 3 Noroeste 15 Norte 0 -- -- 29
2017-08-24 21:00:00 30.3 8 Noroeste 21 Noroeste 0 -- -- 25
2017-08-24 20:00:00 33 10 Oeste 21 Oeste 0 -- -- 20
2017-08-24 19:00:00 34.5 13 Oeste 22 Oeste 0 -- -- 20
2017-08-24 18:00:00 35.3 13 Noroeste 22 Oeste 0 -- -- 19
2017-08-24 17:00:00 35.8 13 Oeste 28 Oeste 0 -- -- 19
2017-08-24 16:00:00 35.4 13 Oeste 24 Oeste 0 -- -- 22
2017-08-24 15:00:00 34.7 6 Sur 22 Oeste 0 -- -- 21
2017-08-24 14:00:00 33.7 10 Oeste 21 Oeste 0 -- -- 21
2017-08-24 13:00:00 32.7 6 Sudeste 16 Sudeste 0 -- -- 26
2017-08-24 12:00:00 30.3 9 Sudeste 17 Este 0 -- -- 31
2017-08-24 11:00:00 27.9 6 Sudeste 15 Sudeste 0 -- -- 35
2017-08-24 10:00:00 24 4 Sudeste 14 Sudeste 0 -- -- 42
2017-08-24 09:00:00 20.2 3 Sur 9 Sudeste 0 -- -- 53
2017-08-24 08:00:00 20.2 5 Sudeste 15 Sudeste 0 -- -- 51
2017-08-24 07:00:00 20 10 Sudeste 14 Sudeste 0 -- -- 50
2017-08-24 06:00:00 20.3 0 Calma 12 Sudeste 0 -- -- 48
2017-08-24 05:00:00 21.2 8 Sudeste 12 Sudeste 0 -- -- 45
2017-08-24 04:00:00 21.1 6 Sudeste 10 Este 0 -- -- 45
2017-08-24 03:00:00 21.7 0 Calma 6 Nordeste 0 -- -- 45
2017-08-24 02:00:00 22.3 2 Este 8 Sudeste 0 -- -- 44
2017-08-24 01:00:00 23.9 4 Sudeste 10 Sudeste 0 -- -- 41
2017-08-24 00:00:00 25.1 5 Sudeste 10 Sudeste 0 -- -- 39
2017-08-23 23:00:00 26.1 6 Sudeste 10 Sudeste 0 -- -- 41
2017-08-23 22:00:00 28.1 0 Calma 12 Oeste 0 -- -- 39
2017-08-23 21:00:00 30.4 8 Oeste 15 Oeste 0 -- -- 36
2017-08-23 20:00:00 33.3 8 Oeste 19 Oeste 0 -- -- 29
2017-08-23 19:00:00 34.4 10 Noroeste 19 Oeste 0 -- -- 26
2017-08-23 18:00:00 34.8 9 Noroeste 22 Noroeste 0 -- -- 26
2017-08-23 17:00:00 35 9 Oeste 31 Oeste 0 -- -- 26
2017-08-23 16:00:00 34.4 8 Oeste 22 Oeste 0 -- -- 27
2017-08-23 15:00:00 33.6 9 Noroeste 25 Oeste 0 -- -- 28
2017-08-23 14:00:00 32.5 8 Noroeste 16 Norte 0 -- -- 30
2017-08-23 13:00:00 31.6 9 Oeste 20 Oeste 0 -- -- 31
2017-08-23 12:00:00 29.7 4 Noroeste 9 Noroeste 0 -- -- 34
2017-08-23 11:00:00 26.7 4 Noroeste 8 Oeste 0 -- -- 39
2017-08-23 10:00:00 22.9 0 Calma 11 Sudeste 0 -- -- 47
2017-08-23 09:00:00 21.5 6 Sudeste 14 Sudeste 0 -- -- 49
2017-08-23 08:00:00 20.1 9 Sudeste 16 Sudeste 0 -- -- 50
2017-08-23 07:00:00 19.5 3 Sudeste 6 Sudeste 0 -- -- 52
2017-08-23 06:00:00 19.8 0 Calma 5 Este 0 -- -- 51
2017-08-23 05:00:00 20.4 0 Calma 3 Este 0 -- -- 49
2017-08-23 04:00:00 21.3 2 Nordeste 6 Sudeste 0 -- -- 46
2017-08-23 03:00:00 22 3 Este 8 Este 0 -- -- 44
2017-08-23 02:00:00 23.3 7 Sudeste 12 Sudeste 0 -- -- 41
2017-08-23 01:00:00 23.6 4 Sudeste 6 Este 0 -- -- 42
2017-08-23 00:00:00 24.2 5 Sudeste 9 Sudeste 0 -- -- 39
2017-08-22 23:00:00 25.5 3 Sudeste 9 Noroeste 0 -- -- 37
2017-08-22 22:00:00 27.3 3 Noroeste 17 Noroeste 0 -- -- 34
2017-08-22 21:00:00 29.7 8 Noroeste 17 Oeste 0 -- -- 33
2017-08-22 20:00:00 32.1 11 Noroeste 19 Noroeste 0 -- -- 30
2017-08-22 19:00:00 33.6 10 Noroeste 23 Oeste 0 -- -- 30
2017-08-22 18:00:00 34.4 11 Noroeste 25 Oeste 0 -- -- 30
2017-08-22 17:00:00 34.6 12 Noroeste 23 Noroeste 0 -- -- 29
2017-08-22 16:00:00 34.6 9 Oeste 19 Noroeste 0 -- -- 29
2017-08-22 15:00:00 33.8 9 Noroeste 18 Sudoeste 0 -- -- 28
2017-08-22 14:00:00 32.6 8 Noroeste 17 Sudoeste 0 -- -- 34
2017-08-22 13:00:00 31.2 7 Sudeste 17 Sudeste 0 -- -- 35
2017-08-22 12:00:00 28.7 6 Sudeste 15 Sudeste 0 -- -- 47
2017-08-22 11:00:00 25.7 6 Sur 13 Sudeste 0 -- -- 55
2017-08-22 10:00:00 22.5 8 Sudeste 14 Sudeste 0 -- -- 66
2017-08-22 09:00:00 20.2 6 Sudeste 10 Sudeste 0 -- -- 72
2017-08-22 08:00:00 19.3 3 Sur 10 Sudeste 0 -- -- 72
2017-08-22 07:00:00 19.6 5 Sudeste 9 Sudeste 0 -- -- 69
2017-08-22 06:00:00 20 4 Sudeste 8 Sudeste 0 -- -- 69
2017-08-22 05:00:00 20.5 5 Sudeste 12 Este 0 -- -- 66
2017-08-22 04:00:00 21 3 Sudeste 12 Sudeste 0 -- -- 59
2017-08-22 03:00:00 21.8 6 Sudeste 13 Sudeste 0 -- -- 52
2017-08-22 02:00:00 22.8 3 Sudeste 10 Sudeste 0 -- -- 50
2017-08-22 01:00:00 23.3 4 Sudeste 12 Sudeste 0 -- -- 50
2017-08-22 00:00:00 24.3 7 Sudeste 16 Este 0 -- -- 50